createdAt,value
2019-06-28T00:02:52.808Z,52.60
2019-06-28T00:06:55.815Z,53.20
2019-06-28T00:10:59.017Z,53.80
2019-06-28T00:15:04.614Z,54.90
2019-06-28T00:19:07.830Z,56.10
2019-06-28T00:23:10.906Z,56.10
2019-06-28T00:27:13.899Z,56.80
2019-06-28T00:31:17.780Z,57.40
2019-06-28T00:35:20.786Z,58.40
2019-06-28T00:39:23.800Z,58.60
2019-06-28T00:43:26.804Z,59.20
2019-06-28T00:47:29.801Z,59.50
2019-06-28T00:51:32.794Z,59.90
2019-06-28T00:55:35.806Z,60.50
2019-06-28T00:59:38.808Z,60.50
2019-06-28T01:03:41.804Z,61.20
2019-06-28T01:07:44.799Z,62.60
2019-06-28T01:11:47.795Z,63.70
2019-06-28T01:15:50.795Z,64.60
2019-06-28T01:19:53.799Z,65.30
2019-06-28T01:23:56.896Z,65.20
2019-06-28T01:27:59.888Z,65.30
2019-06-28T01:32:04.839Z,65.90
2019-06-28T01:36:08.907Z,65.90
2019-06-28T01:40:12.109Z,66.70
2019-06-28T01:44:18.241Z,67.20
2019-06-28T01:48:21.334Z,67.30
2019-06-28T01:52:24.345Z,67.50
2019-06-28T01:56:27.447Z,68.00
2019-06-28T02:00:30.454Z,68.60
2019-06-28T02:04:33.452Z,68.80
2019-06-28T02:08:36.445Z,68.90
2019-06-28T02:12:39.463Z,68.50
2019-06-28T02:16:42.554Z,69.20
2019-06-28T02:20:45.556Z,69.80
2019-06-28T02:24:48.538Z,70.50
2019-06-28T02:28:51.697Z,70.60
2019-06-28T02:32:55.994Z,71.20
2019-06-28T02:36:58.992Z,71.00
2019-06-28T02:41:01.992Z,71.50
2019-06-28T02:45:08.208Z,71.50
2019-06-28T02:49:14.236Z,71.80
2019-06-28T02:53:17.221Z,72.30
2019-06-28T02:57:24.304Z,72.40
2019-06-28T03:01:27.292Z,73.20
2019-06-28T03:05:30.296Z,73.30
2019-06-28T03:09:33.330Z,74.00
2019-06-28T03:13:36.323Z,74.30
2019-06-28T03:17:39.320Z,74.70
2019-06-28T03:21:42.306Z,74.70
2019-06-28T03:25:45.315Z,75.10
2019-06-28T03:29:48.316Z,74.80
2019-06-28T03:33:53.145Z,75.50
2019-06-28T03:37:56.131Z,76.00
2019-06-28T03:41:59.136Z,76.10
2019-06-28T03:46:02.156Z,76.40
2019-06-28T03:50:05.746Z,76.30
2019-06-28T03:54:08.737Z,76.20
2019-06-28T03:58:11.726Z,75.90
2019-06-28T04:02:14.726Z,75.90
2019-06-28T04:06:17.715Z,75.00
2019-06-28T04:10:24.514Z,71.60
2019-06-28T04:14:27.526Z,70.70
2019-06-28T04:18:30.506Z,70.70
2019-06-28T04:22:33.498Z,70.40
2019-06-28T04:26:37.736Z,71.20
2019-06-28T04:30:40.768Z,70.00
2019-06-28T04:34:44.162Z,69.60
2019-06-28T04:38:47.156Z,67.70
2019-06-28T04:42:50.147Z,66.50
2019-06-28T04:46:53.167Z,65.40
2019-06-28T04:50:56.175Z,65.20
2019-06-28T04:54:59.221Z,64.50
2019-06-28T04:59:02.386Z,63.80
2019-06-28T05:03:05.398Z,63.40
2019-06-28T05:07:08.387Z,62.80
2019-06-28T05:11:11.393Z,62.50
2019-06-28T05:15:14.379Z,62.40
2019-06-28T05:19:17.476Z,62.80
2019-06-28T05:23:20.459Z,62.80
2019-06-28T05:27:23.442Z,61.80
2019-06-28T05:31:26.457Z,61.50
2019-06-28T05:35:31.691Z,59.70
2019-06-28T05:39:34.736Z,57.60
2019-06-28T05:43:53.048Z,58.00
2019-06-28T05:47:43.406Z,59.80
2019-06-28T05:51:46.476Z,60.90
2019-06-28T05:55:49.568Z,60.80
2019-06-28T05:59:52.634Z,62.70
2019-06-28T06:03:55.625Z,62.20
2019-06-28T06:07:58.625Z,61.70
2019-06-28T06:12:01.755Z,61.60
2019-06-28T06:16:06.036Z,63.20
2019-06-28T06:20:09.863Z,64.80
2019-06-28T06:24:12.884Z,64.60
2019-06-28T06:28:15.875Z,64.10
2019-06-28T06:32:18.896Z,63.30
2019-06-28T06:36:23.399Z,63.80
2019-06-28T06:40:26.396Z,63.90
2019-06-28T06:44:29.491Z,62.40
2019-06-28T06:48:32.858Z,62.00
2019-06-28T06:52:35.898Z,62.50
2019-06-28T06:56:38.905Z,63.70
2019-06-28T07:00:41.913Z,63.60
2019-06-28T07:04:44.922Z,63.90
2019-06-28T07:08:47.897Z,66.30
2019-06-28T07:12:50.887Z,66.30
2019-06-28T07:16:53.924Z,66.10
2019-06-28T07:20:56.910Z,65.80
2019-06-28T07:24:59.893Z,65.90
2019-06-28T07:29:02.883Z,66.20
2019-06-28T07:33:05.868Z,65.20
2019-06-28T07:37:10.463Z,64.90
2019-06-28T07:41:13.458Z,64.80
2019-06-28T07:45:16.560Z,64.40
2019-06-28T07:49:19.581Z,62.60
2019-06-28T07:53:22.576Z,60.00
2019-06-28T07:57:25.583Z,59.00
2019-06-28T08:01:28.562Z,59.80
2019-06-28T08:05:31.569Z,59.00
2019-06-28T08:09:34.577Z,58.30
2019-06-28T08:13:37.559Z,57.50
2019-06-28T08:17:40.568Z,53.50
2019-06-28T08:21:43.546Z,52.30
2019-06-28T08:25:46.545Z,50.30
2019-06-28T08:29:49.532Z,47.40
2019-06-28T08:33:52.526Z,45.60
2019-06-28T08:37:57.066Z,44.30
2019-06-28T08:42:00.069Z,42.00
2019-06-28T08:46:03.123Z,41.10
2019-06-28T08:50:06.557Z,41.50
2019-06-28T08:54:09.558Z,39.30
2019-06-28T08:58:14.420Z,39.80
2019-06-28T09:02:17.464Z,39.50
2019-06-28T09:06:20.682Z,37.60
2019-06-28T09:10:23.794Z,39.10
2019-06-28T09:14:26.782Z,37.50
2019-06-28T09:18:29.827Z,41.10
2019-06-28T09:22:33.055Z,38.50
2019-06-28T09:26:36.217Z,36.80
2019-06-28T09:30:39.214Z,36.10
2019-06-28T09:34:42.198Z,34.30
2019-06-28T09:38:45.576Z,34.30
2019-06-28T09:42:48.642Z,32.60
2019-06-28T09:46:52.054Z,30.10
2019-06-28T09:50:55.117Z,29.50
2019-06-28T09:54:58.150Z,29.70
2019-06-28T09:59:01.164Z,31.90
2019-06-28T10:03:04.186Z,32.00
2019-06-28T10:07:07.266Z,31.90
2019-06-28T10:11:10.266Z,29.20
2019-06-28T10:15:13.415Z,29.90
2019-06-28T10:19:16.406Z,29.20
2019-06-28T10:23:19.580Z,29.20
2019-06-28T10:27:22.558Z,30.20
2019-06-28T10:31:25.551Z,30.00
2019-06-28T10:35:28.567Z,29.70
2019-06-28T10:39:33.040Z,28.00
2019-06-28T10:43:36.050Z,29.00
2019-06-28T10:47:39.029Z,29.30
2019-06-28T10:51:42.059Z,29.70
2019-06-28T10:55:45.045Z,28.30
2019-06-28T10:59:48.047Z,29.10
2019-06-28T11:03:51.143Z,29.80
2019-06-28T11:07:54.153Z,27.50
2019-06-28T11:11:57.234Z,28.50
2019-06-28T11:16:00.224Z,27.80
2019-06-28T11:20:04.934Z,27.00
2019-06-28T11:24:07.948Z,28.50
2019-06-28T11:28:10.944Z,29.20
2019-06-28T11:32:14.145Z,29.70
2019-06-28T11:36:17.226Z,29.80
2019-06-28T11:40:20.905Z,28.20
2019-06-28T11:44:23.965Z,30.80
2019-06-28T11:48:26.970Z,29.10
2019-06-28T11:52:29.972Z,29.50
2019-06-28T11:56:33.050Z,29.00
2019-06-28T12:00:36.059Z,28.40
2019-06-28T12:04:39.139Z,26.30
2019-06-28T12:08:42.134Z,27.90
2019-06-28T12:12:45.234Z,29.50
2019-06-28T12:16:48.237Z,30.00
2019-06-28T12:20:51.367Z,27.90
2019-06-28T12:24:54.394Z,27.80
2019-06-28T12:28:57.419Z,29.50
2019-06-28T12:33:00.412Z,30.60
2019-06-28T12:37:03.391Z,29.60
2019-06-28T12:41:08.520Z,28.00
2019-06-28T12:45:13.069Z,27.80
2019-06-28T12:49:16.070Z,29.40
2019-06-28T12:53:19.194Z,30.60
2019-06-28T12:57:22.317Z,31.10
2019-06-28T13:01:25.336Z,30.00
2019-06-28T13:05:28.414Z,30.10
2019-06-28T13:09:31.406Z,29.80
2019-06-28T13:13:34.401Z,28.40
2019-06-28T13:17:43.505Z,29.30
2019-06-28T13:21:46.563Z,27.80
2019-06-28T13:25:49.584Z,29.00
2019-06-28T13:29:52.644Z,31.60
2019-06-28T13:33:55.650Z,29.60
2019-06-28T13:37:58.706Z,30.60
2019-06-28T13:42:03.450Z,31.60
2019-06-28T13:46:06.582Z,29.80
2019-06-28T13:50:09.792Z,29.40
2019-06-28T13:54:12.835Z,30.00
2019-06-28T13:58:15.870Z,33.20
2019-06-28T14:02:18.883Z,30.60
2019-06-28T14:06:21.953Z,31.40
2019-06-28T14:10:25.461Z,29.00
2019-06-28T14:14:29.990Z,30.70
2019-06-28T14:18:38.444Z,29.90
2019-06-28T14:22:37.977Z,29.40
2019-06-28T14:26:40.966Z,31.80
2019-06-28T14:30:44.076Z,31.20
2019-06-28T14:34:47.104Z,29.90
2019-06-28T14:38:50.091Z,29.00
2019-06-28T14:42:53.364Z,32.40
2019-06-28T14:46:57.378Z,30.60
2019-06-28T14:51:00.487Z,31.80
2019-06-28T14:55:05.491Z,29.60
2019-06-28T14:59:08.510Z,30.30
2019-06-28T15:03:11.620Z,29.90
2019-06-28T15:07:14.791Z,29.10
2019-06-28T15:11:17.914Z,29.40
2019-06-28T15:15:21.021Z,29.80
2019-06-28T15:19:24.036Z,29.80
2019-06-28T15:23:27.063Z,30.50
2019-06-28T15:27:30.085Z,31.20
2019-06-28T15:31:33.094Z,33.00
2019-06-28T15:35:36.097Z,31.70
2019-06-28T15:39:39.084Z,31.00
2019-06-28T15:43:42.694Z,31.50
2019-06-28T15:47:45.728Z,31.90
2019-06-28T15:51:48.734Z,31.70
2019-06-28T15:55:51.729Z,32.70
2019-06-28T15:59:54.762Z,32.30
2019-06-28T16:03:57.771Z,31.40
2019-06-28T16:08:00.773Z,31.90
2019-06-28T16:12:03.786Z,32.40
2019-06-28T16:16:06.844Z,32.80
2019-06-28T16:20:12.035Z,33.60
2019-06-28T16:24:15.090Z,34.00
2019-06-28T16:28:18.094Z,33.50
2019-06-28T16:32:21.147Z,33.50
2019-06-28T16:36:24.159Z,33.70
2019-06-28T16:40:27.223Z,33.90
2019-06-28T16:44:30.764Z,33.20
2019-06-28T16:48:33.750Z,33.20
2019-06-28T16:52:36.768Z,33.90
2019-06-28T16:56:43.811Z,34.40
2019-06-28T17:00:45.919Z,33.30
2019-06-28T17:04:48.902Z,33.60
2019-06-28T17:08:51.900Z,33.20
2019-06-28T17:12:54.981Z,33.90
2019-06-28T17:16:57.990Z,33.90
2019-06-28T17:21:01.035Z,33.90
2019-06-28T17:25:07.151Z,34.80
2019-06-28T17:29:10.145Z,34.70
2019-06-28T17:33:13.174Z,35.00
2019-06-28T17:37:16.164Z,34.80
2019-06-28T17:41:22.585Z,35.90
2019-06-28T17:45:24.923Z,35.70
2019-06-28T17:49:28.966Z,36.20
2019-06-28T17:53:31.986Z,35.80
2019-06-28T17:57:35.318Z,36.10
2019-06-28T18:01:38.967Z,36.40
2019-06-28T18:05:42.548Z,36.50
2019-06-28T18:09:46.003Z,36.60
2019-06-28T18:13:49.460Z,37.10
2019-06-28T18:17:52.508Z,36.90
2019-06-28T18:21:55.503Z,37.30
2019-06-28T18:25:58.527Z,37.40
2019-06-28T18:30:07.511Z,37.40
2019-06-28T18:34:10.681Z,37.70
2019-06-28T18:38:13.681Z,38.20
2019-06-28T18:42:28.323Z,38.30
2019-06-28T18:46:22.505Z,38.60
2019-06-28T18:50:25.494Z,39.00
2019-06-28T18:54:31.502Z,39.40
2019-06-28T18:58:34.499Z,39.40
2019-06-28T19:02:43.710Z,39.80
2019-06-28T19:06:44.493Z,40.10
2019-06-28T19:10:49.622Z,40.30
2019-06-28T19:14:52.606Z,40.40
2019-06-28T19:18:55.627Z,40.60
2019-06-28T19:22:58.622Z,40.70
2019-06-28T19:27:01.657Z,40.60
2019-06-28T19:31:11.376Z,40.70
2019-06-28T19:35:15.000Z,41.20
2019-06-28T19:39:17.967Z,41.40
2019-06-28T19:43:20.964Z,41.70
2019-06-28T19:47:25.039Z,42.30
2019-06-28T19:51:41.366Z,42.40
2019-06-28T19:55:35.079Z,42.70
2019-06-28T19:59:39.085Z,42.50
2019-06-28T20:03:42.088Z,42.60
2019-06-28T20:07:45.078Z,43.60
2019-06-28T20:11:48.083Z,43.80
2019-06-28T20:15:51.181Z,44.10
2019-06-28T20:19:54.177Z,44.00
2019-06-28T20:23:57.187Z,43.80
2019-06-28T20:28:00.191Z,42.60
2019-06-28T20:32:03.186Z,41.70
2019-06-28T20:36:06.187Z,42.20
2019-06-28T20:40:09.688Z,43.20
2019-06-28T20:44:12.692Z,43.80
2019-06-28T20:48:16.123Z,44.30
2019-06-28T20:52:19.116Z,44.40
2019-06-28T20:56:23.221Z,44.90
2019-06-28T21:00:26.225Z,44.70
2019-06-28T21:04:29.227Z,44.90
2019-06-28T21:08:32.239Z,46.00
2019-06-28T21:12:36.339Z,45.40
2019-06-28T21:16:39.337Z,44.20
2019-06-28T21:20:42.334Z,43.00
2019-06-28T21:24:45.318Z,43.10
2019-06-28T21:28:48.319Z,45.60
2019-06-28T21:32:51.310Z,45.10
2019-06-28T21:36:54.310Z,44.70
2019-06-28T21:40:57.312Z,45.20
2019-06-28T21:45:00.301Z,45.20
2019-06-28T21:49:04.478Z,45.50
2019-06-28T21:53:07.478Z,44.10
2019-06-28T21:57:10.488Z,44.50
2019-06-28T22:01:13.579Z,45.90
2019-06-28T22:05:16.665Z,46.30
2019-06-28T22:09:20.684Z,47.00
2019-06-28T22:13:23.716Z,47.20
2019-06-28T22:17:26.694Z,46.60
2019-06-28T22:21:29.682Z,47.00
2019-06-28T22:25:32.903Z,47.30
2019-06-28T22:29:35.907Z,48.00
2019-06-28T22:33:38.906Z,48.60
2019-06-28T22:37:41.888Z,48.60
2019-06-28T22:41:44.888Z,48.60
2019-06-28T22:45:47.867Z,49.20
2019-06-28T22:49:52.010Z,49.50
2019-06-28T22:53:55.004Z,49.60
2019-06-28T22:57:58.014Z,50.00
2019-06-28T23:02:01.052Z,50.20
2019-06-28T23:06:04.194Z,50.20
2019-06-28T23:10:07.525Z,50.50
2019-06-28T23:14:10.583Z,50.10
2019-06-28T23:18:13.586Z,50.70
2019-06-28T23:22:16.596Z,51.40
2019-06-28T23:26:19.576Z,52.50
2019-06-28T23:30:22.565Z,53.40
2019-06-28T23:34:25.566Z,54.00
2019-06-28T23:38:28.574Z,53.90
2019-06-28T23:42:31.570Z,54.50
2019-06-28T23:46:45.258Z,54.70
2019-06-28T23:50:40.750Z,55.30
2019-06-28T23:54:43.743Z,55.20
2019-06-28T23:58:46.737Z,56.00
